sensor_id;sensor_type;location;lat;lon;timestamp;P1;durP1;ratioP1;P2;durP2;ratioP2
4430;SDS011;2228;48.140;11.488;2022-10-16T00:00:41;4.73;;;2.90;;
4430;SDS011;2228;48.140;11.488;2022-10-16T00:03:09;4.72;;;2.70;;
4430;SDS011;2228;48.140;11.488;2022-10-16T00:05:40;5.20;;;2.53;;
4430;SDS011;2228;48.140;11.488;2022-10-16T00:08:10;6.05;;;2.88;;
4430;SDS011;2228;48.140;11.488;2022-10-16T00:10:38;4.50;;;3.03;;
4430;SDS011;2228;48.140;11.488;2022-10-16T00:13:05;5.15;;;3.25;;
4430;SDS011;2228;48.140;11.488;2022-10-16T00:15:34;4.90;;;3.60;;
4430;SDS011;2228;48.140;11.488;2022-10-16T00:18:02;6.10;;;2.78;;
4430;SDS011;2228;48.140;11.488;2022-10-16T00:20:30;6.55;;;3.10;;
4430;SDS011;2228;48.140;11.488;2022-10-16T00:22:59;7.43;;;3.20;;
4430;SDS011;2228;48.140;11.488;2022-10-16T00:25:26;7.30;;;2.97;;
4430;SDS011;2228;48.140;11.488;2022-10-16T00:27:53;6.72;;;3.50;;
4430;SDS011;2228;48.140;11.488;2022-10-16T00:30:20;6.97;;;3.30;;
4430;SDS011;2228;48.140;11.488;2022-10-16T00:32:48;7.55;;;3.50;;
4430;SDS011;2228;48.140;11.488;2022-10-16T00:35:15;6.93;;;3.50;;
4430;SDS011;2228;48.140;11.488;2022-10-16T00:37:42;6.10;;;3.97;;
4430;SDS011;2228;48.140;11.488;2022-10-16T00:40:09;6.70;;;4.13;;
4430;SDS011;2228;48.140;11.488;2022-10-16T00:42:36;9.27;;;4.20;;
4430;SDS011;2228;48.140;11.488;2022-10-16T00:45:04;6.88;;;3.40;;
4430;SDS011;2228;48.140;11.488;2022-10-16T00:47:32;3.95;;;2.60;;
4430;SDS011;2228;48.140;11.488;2022-10-16T00:50:04;5.32;;;2.90;;
4430;SDS011;2228;48.140;11.488;2022-10-16T00:52:33;4.43;;;2.20;;
4430;SDS011;2228;48.140;11.488;2022-10-16T00:55:01;7.50;;;2.08;;
4430;SDS011;2228;48.140;11.488;2022-10-16T00:57:29;8.60;;;2.40;;
4430;SDS011;2228;48.140;11.488;2022-10-16T00:59:56;9.95;;;2.70;;
4430;SDS011;2228;48.140;11.488;2022-10-16T01:02:23;5.57;;;2.60;;
4430;SDS011;2228;48.140;11.488;2022-10-16T01:04:51;8.93;;;2.40;;
4430;SDS011;2228;48.140;11.488;2022-10-16T01:07:23;5.00;;;2.70;;
4430;SDS011;2228;48.140;11.488;2022-10-16T01:09:59;4.10;;;2.10;;
4430;SDS011;2228;48.140;11.488;2022-10-16T01:12:35;5.70;;;2.22;;
4430;SDS011;2228;48.140;11.488;2022-10-16T01:15:08;4.00;;;2.50;;
4430;SDS011;2228;48.140;11.488;2022-10-16T01:17:41;5.57;;;2.78;;
4430;SDS011;2228;48.140;11.488;2022-10-16T01:20:14;3.78;;;2.30;;
4430;SDS011;2228;48.140;11.488;2022-10-16T01:22:54;4.78;;;2.63;;
4430;SDS011;2228;48.140;11.488;2022-10-16T01:25:33;15.10;;;3.70;;
4430;SDS011;2228;48.140;11.488;2022-10-16T01:28:19;8.60;;;4.40;;
4430;SDS011;2228;48.140;11.488;2022-10-16T01:30:49;8.88;;;4.80;;
4430;SDS011;2228;48.140;11.488;2022-10-16T01:33:22;11.25;;;3.72;;
4430;SDS011;2228;48.140;11.488;2022-10-16T01:35:53;4.75;;;2.80;;
4430;SDS011;2228;48.140;11.488;2022-10-16T01:38:25;7.30;;;3.60;;
4430;SDS011;2228;48.140;11.488;2022-10-16T01:40:58;5.30;;;3.60;;
4430;SDS011;2228;48.140;11.488;2022-10-16T01:43:31;5.57;;;3.40;;
4430;SDS011;2228;48.140;11.488;2022-10-16T01:46:01;9.02;;;4.80;;
4430;SDS011;2228;48.140;11.488;2022-10-16T01:48:28;13.38;;;5.00;;
4430;SDS011;2228;48.140;11.488;2022-10-16T01:50:58;8.90;;;3.28;;
4430;SDS011;2228;48.140;11.488;2022-10-16T01:53:30;4.25;;;2.40;;
4430;SDS011;2228;48.140;11.488;2022-10-16T01:55:57;3.13;;;2.33;;
4430;SDS011;2228;48.140;11.488;2022-10-16T01:58:26;4.78;;;2.60;;
4430;SDS011;2228;48.140;11.488;2022-10-16T02:00:57;4.00;;;2.30;;
4430;SDS011;2228;48.140;11.488;2022-10-16T02:03:24;4.57;;;2.03;;
4430;SDS011;2228;48.140;11.488;2022-10-16T02:05:51;5.82;;;2.08;;
4430;SDS011;2228;48.140;11.488;2022-10-16T02:08:20;2.63;;;2.10;;
4430;SDS011;2228;48.140;11.488;2022-10-16T02:10:49;3.55;;;1.90;;
4430;SDS011;2228;48.140;11.488;2022-10-16T02:13:16;3.28;;;1.90;;
4430;SDS011;2228;48.140;11.488;2022-10-16T02:15:47;5.10;;;2.20;;
4430;SDS011;2228;48.140;11.488;2022-10-16T02:18:15;7.40;;;2.10;;
4430;SDS011;2228;48.140;11.488;2022-10-16T02:20:43;4.10;;;2.00;;
4430;SDS011;2228;48.140;11.488;2022-10-16T02:23:18;3.53;;;2.10;;
4430;SDS011;2228;48.140;11.488;2022-10-16T02:25:50;5.25;;;2.20;;
4430;SDS011;2228;48.140;11.488;2022-10-16T02:28:22;2.78;;;1.90;;
4430;SDS011;2228;48.140;11.488;2022-10-16T02:30:53;2.33;;;1.90;;
4430;SDS011;2228;48.140;11.488;2022-10-16T02:33:25;3.10;;;2.00;;
4430;SDS011;2228;48.140;11.488;2022-10-16T02:35:54;2.83;;;1.92;;
4430;SDS011;2228;48.140;11.488;2022-10-16T02:38:23;3.10;;;2.00;;
4430;SDS011;2228;48.140;11.488;2022-10-16T02:40:51;2.63;;;1.60;;
4430;SDS011;2228;48.140;11.488;2022-10-16T02:43:18;3.90;;;1.65;;
4430;SDS011;2228;48.140;11.488;2022-10-16T02:45:45;2.13;;;1.52;;
4430;SDS011;2228;48.140;11.488;2022-10-16T02:48:12;2.47;;;1.65;;
4430;SDS011;2228;48.140;11.488;2022-10-16T02:50:41;2.65;;;1.70;;
4430;SDS011;2228;48.140;11.488;2022-10-16T02:53:08;4.07;;;1.63;;
4430;SDS011;2228;48.140;11.488;2022-10-16T02:55:35;3.10;;;1.80;;
4430;SDS011;2228;48.140;11.488;2022-10-16T02:58:02;1.98;;;1.60;;
4430;SDS011;2228;48.140;11.488;2022-10-16T03:00:28;4.20;;;1.70;;
4430;SDS011;2228;48.140;11.488;2022-10-16T03:02:55;4.57;;;1.98;;
4430;SDS011;2228;48.140;11.488;2022-10-16T03:05:22;5.60;;;2.10;;
4430;SDS011;2228;48.140;11.488;2022-10-16T03:07:50;5.00;;;2.03;;
4430;SDS011;2228;48.140;11.488;2022-10-16T03:10:17;4.53;;;2.17;;
4430;SDS011;2228;48.140;11.488;2022-10-16T03:12:44;3.80;;;1.90;;
4430;SDS011;2228;48.140;11.488;2022-10-16T03:15:11;3.08;;;1.80;;
4430;SDS011;2228;48.140;11.488;2022-10-16T03:17:38;3.50;;;2.00;;
4430;SDS011;2228;48.140;11.488;2022-10-16T03:20:05;3.63;;;2.30;;
4430;SDS011;2228;48.140;11.488;2022-10-16T03:22:32;3.20;;;1.90;;
4430;SDS011;2228;48.140;11.488;2022-10-16T03:25:01;6.57;;;2.20;;
4430;SDS011;2228;48.140;11.488;2022-10-16T03:27:28;3.92;;;1.90;;
4430;SDS011;2228;48.140;11.488;2022-10-16T03:29:55;2.95;;;1.80;;
4430;SDS011;2228;48.140;11.488;2022-10-16T03:32:21;6.30;;;2.30;;
4430;SDS011;2228;48.140;11.488;2022-10-16T03:34:50;3.00;;;1.80;;
4430;SDS011;2228;48.140;11.488;2022-10-16T03:37:18;3.77;;;1.93;;
4430;SDS011;2228;48.140;11.488;2022-10-16T03:39:45;3.70;;;2.05;;
4430;SDS011;2228;48.140;11.488;2022-10-16T03:42:13;4.40;;;1.90;;
4430;SDS011;2228;48.140;11.488;2022-10-16T03:44:40;3.63;;;2.00;;
4430;SDS011;2228;48.140;11.488;2022-10-16T03:47:06;4.15;;;2.10;;
4430;SDS011;2228;48.140;11.488;2022-10-16T03:49:33;4.25;;;1.98;;
4430;SDS011;2228;48.140;11.488;2022-10-16T03:52:00;4.90;;;1.90;;
4430;SDS011;2228;48.140;11.488;2022-10-16T03:54:27;2.90;;;1.52;;
4430;SDS011;2228;48.140;11.488;2022-10-16T03:56:54;2.10;;;1.70;;
4430;SDS011;2228;48.140;11.488;2022-10-16T03:59:22;2.03;;;1.83;;
4430;SDS011;2228;48.140;11.488;2022-10-16T04:01:49;4.50;;;2.30;;
4430;SDS011;2228;48.140;11.488;2022-10-16T04:04:16;2.00;;;1.60;;
4430;SDS011;2228;48.140;11.488;2022-10-16T04:06:43;2.80;;;1.80;;
4430;SDS011;2228;48.140;11.488;2022-10-16T04:09:09;3.70;;;1.70;;
4430;SDS011;2228;48.140;11.488;2022-10-16T04:11:36;3.10;;;1.60;;
4430;SDS011;2228;48.140;11.488;2022-10-16T04:14:04;2.00;;;1.70;;
4430;SDS011;2228;48.140;11.488;2022-10-16T04:16:32;2.30;;;1.70;;
4430;SDS011;2228;48.140;11.488;2022-10-16T04:18:59;2.80;;;1.80;;
4430;SDS011;2228;48.140;11.488;2022-10-16T04:21:26;2.22;;;1.60;;
4430;SDS011;2228;48.140;11.488;2022-10-16T04:23:53;3.50;;;1.90;;
4430;SDS011;2228;48.140;11.488;2022-10-16T04:26:20;3.60;;;1.90;;
4430;SDS011;2228;48.140;11.488;2022-10-16T04:28:46;3.08;;;1.90;;
4430;SDS011;2228;48.140;11.488;2022-10-16T04:31:13;2.40;;;1.70;;
4430;SDS011;2228;48.140;11.488;2022-10-16T04:33:43;4.25;;;1.95;;
4430;SDS011;2228;48.140;11.488;2022-10-16T04:36:10;3.40;;;1.80;;
4430;SDS011;2228;48.140;11.488;2022-10-16T04:38:36;2.78;;;2.03;;
4430;SDS011;2228;48.140;11.488;2022-10-16T04:41:04;4.90;;;2.17;;
4430;SDS011;2228;48.140;11.488;2022-10-16T04:43:32;5.15;;;1.75;;
4430;SDS011;2228;48.140;11.488;2022-10-16T04:45:59;5.20;;;1.90;;
4430;SDS011;2228;48.140;11.488;2022-10-16T04:48:26;6.55;;;2.08;;
4430;SDS011;2228;48.140;11.488;2022-10-16T04:50:55;1.50;;;1.40;;
4430;SDS011;2228;48.140;11.488;2022-10-16T04:53:22;2.40;;;2.00;;
4430;SDS011;2228;48.140;11.488;2022-10-16T04:55:49;3.00;;;1.85;;
4430;SDS011;2228;48.140;11.488;2022-10-16T04:58:16;3.75;;;1.75;;
4430;SDS011;2228;48.140;11.488;2022-10-16T05:00:43;3.80;;;2.00;;
4430;SDS011;2228;48.140;11.488;2022-10-16T05:03:11;4.70;;;2.40;;
4430;SDS011;2228;48.140;11.488;2022-10-16T05:05:41;4.78;;;1.90;;
4430;SDS011;2228;48.140;11.488;2022-10-16T05:08:11;3.50;;;2.00;;
4430;SDS011;2228;48.140;11.488;2022-10-16T05:10:38;3.90;;;1.98;;
4430;SDS011;2228;48.140;11.488;2022-10-16T05:13:06;4.15;;;1.50;;
4430;SDS011;2228;48.140;11.488;2022-10-16T05:15:33;3.10;;;1.52;;
4430;SDS011;2228;48.140;11.488;2022-10-16T05:18:00;3.33;;;1.80;;
4430;SDS011;2228;48.140;11.488;2022-10-16T05:20:27;2.73;;;1.80;;
4430;SDS011;2228;48.140;11.488;2022-10-16T05:22:54;2.75;;;1.90;;
4430;SDS011;2228;48.140;11.488;2022-10-16T05:25:22;2.70;;;2.20;;
4430;SDS011;2228;48.140;11.488;2022-10-16T05:27:50;3.35;;;1.80;;
4430;SDS011;2228;48.140;11.488;2022-10-16T05:30:17;1.60;;;1.50;;
4430;SDS011;2228;48.140;11.488;2022-10-16T05:32:45;3.47;;;1.93;;
4430;SDS011;2228;48.140;11.488;2022-10-16T05:35:13;2.08;;;1.75;;
4430;SDS011;2228;48.140;11.488;2022-10-16T05:37:40;3.10;;;1.80;;
4430;SDS011;2228;48.140;11.488;2022-10-16T05:40:08;4.55;;;2.00;;
4430;SDS011;2228;48.140;11.488;2022-10-16T05:42:36;2.85;;;1.80;;
4430;SDS011;2228;48.140;11.488;2022-10-16T05:45:03;4.32;;;2.10;;
4430;SDS011;2228;48.140;11.488;2022-10-16T05:47:31;3.65;;;2.20;;
4430;SDS011;2228;48.140;11.488;2022-10-16T05:49:58;3.00;;;1.98;;
4430;SDS011;2228;48.140;11.488;2022-10-16T05:52:26;3.65;;;1.92;;
4430;SDS011;2228;48.140;11.488;2022-10-16T05:54:53;2.70;;;2.05;;
4430;SDS011;2228;48.140;11.488;2022-10-16T05:57:20;4.50;;;2.40;;
4430;SDS011;2228;48.140;11.488;2022-10-16T05:59:48;3.10;;;1.90;;
4430;SDS011;2228;48.140;11.488;2022-10-16T06:02:15;5.37;;;2.27;;
4430;SDS011;2228;48.140;11.488;2022-10-16T06:04:42;3.80;;;2.15;;
4430;SDS011;2228;48.140;11.488;2022-10-16T06:07:09;7.40;;;2.60;;
4430;SDS011;2228;48.140;11.488;2022-10-16T06:09:36;3.50;;;2.22;;
4430;SDS011;2228;48.140;11.488;2022-10-16T06:12:02;3.42;;;1.90;;
4430;SDS011;2228;48.140;11.488;2022-10-16T06:14:29;3.58;;;2.22;;
4430;SDS011;2228;48.140;11.488;2022-10-16T06:16:57;3.65;;;2.00;;
4430;SDS011;2228;48.140;11.488;2022-10-16T06:19:24;4.10;;;2.10;;
4430;SDS011;2228;48.140;11.488;2022-10-16T06:21:51;5.43;;;2.30;;
4430;SDS011;2228;48.140;11.488;2022-10-16T06:24:18;6.03;;;2.10;;
4430;SDS011;2228;48.140;11.488;2022-10-16T06:26:45;4.47;;;2.22;;
4430;SDS011;2228;48.140;11.488;2022-10-16T06:29:12;3.20;;;1.93;;
4430;SDS011;2228;48.140;11.488;2022-10-16T06:31:39;3.63;;;1.90;;
4430;SDS011;2228;48.140;11.488;2022-10-16T06:34:08;5.03;;;2.30;;
4430;SDS011;2228;48.140;11.488;2022-10-16T06:36:36;4.10;;;2.00;;
4430;SDS011;2228;48.140;11.488;2022-10-16T06:39:03;4.60;;;2.45;;
4430;SDS011;2228;48.140;11.488;2022-10-16T06:41:32;4.10;;;2.35;;
4430;SDS011;2228;48.140;11.488;2022-10-16T06:43:59;4.95;;;2.20;;
4430;SDS011;2228;48.140;11.488;2022-10-16T06:46:27;4.28;;;2.10;;
4430;SDS011;2228;48.140;11.488;2022-10-16T06:48:54;4.63;;;2.28;;
4430;SDS011;2228;48.140;11.488;2022-10-16T06:51:22;6.80;;;2.30;;
4430;SDS011;2228;48.140;11.488;2022-10-16T06:53:50;2.40;;;2.10;;
4430;SDS011;2228;48.140;11.488;2022-10-16T06:56:20;4.20;;;2.45;;
4430;SDS011;2228;48.140;11.488;2022-10-16T06:58:48;4.05;;;2.00;;
4430;SDS011;2228;48.140;11.488;2022-10-16T07:01:16;4.18;;;2.40;;
4430;SDS011;2228;48.140;11.488;2022-10-16T07:03:44;5.07;;;2.10;;
4430;SDS011;2228;48.140;11.488;2022-10-16T07:06:12;2.60;;;2.10;;
4430;SDS011;2228;48.140;11.488;2022-10-16T07:08:42;3.95;;;2.50;;
4430;SDS011;2228;48.140;11.488;2022-10-16T07:11:12;3.45;;;2.45;;
4430;SDS011;2228;48.140;11.488;2022-10-16T07:13:40;4.50;;;2.70;;
4430;SDS011;2228;48.140;11.488;2022-10-16T07:16:10;4.07;;;2.25;;
4430;SDS011;2228;48.140;11.488;2022-10-16T07:18:39;2.83;;;2.13;;
4430;SDS011;2228;48.140;11.488;2022-10-16T07:21:09;2.67;;;2.15;;
4430;SDS011;2228;48.140;11.488;2022-10-16T07:23:38;2.90;;;2.20;;
4430;SDS011;2228;48.140;11.488;2022-10-16T07:26:07;3.37;;;2.33;;
4430;SDS011;2228;48.140;11.488;2022-10-16T07:28:34;4.57;;;2.20;;
4430;SDS011;2228;48.140;11.488;2022-10-16T07:31:01;3.00;;;1.83;;
4430;SDS011;2228;48.140;11.488;2022-10-16T07:33:29;2.28;;;2.03;;
4430;SDS011;2228;48.140;11.488;2022-10-16T07:35:57;4.30;;;1.90;;
4430;SDS011;2228;48.140;11.488;2022-10-16T07:38:24;2.30;;;1.70;;
4430;SDS011;2228;48.140;11.488;2022-10-16T07:40:55;3.80;;;1.80;;
4430;SDS011;2228;48.140;11.488;2022-10-16T07:43:24;3.38;;;1.70;;
4430;SDS011;2228;48.140;11.488;2022-10-16T07:45:51;3.70;;;2.10;;
4430;SDS011;2228;48.140;11.488;2022-10-16T07:48:18;3.70;;;2.00;;
4430;SDS011;2228;48.140;11.488;2022-10-16T07:50:45;3.05;;;2.00;;
4430;SDS011;2228;48.140;11.488;2022-10-16T07:53:12;2.70;;;1.97;;
4430;SDS011;2228;48.140;11.488;2022-10-16T07:55:40;2.80;;;2.00;;
4430;SDS011;2228;48.140;11.488;2022-10-16T07:58:07;2.60;;;1.90;;
4430;SDS011;2228;48.140;11.488;2022-10-16T08:00:36;3.55;;;2.03;;
4430;SDS011;2228;48.140;11.488;2022-10-16T08:03:03;2.63;;;1.90;;
4430;SDS011;2228;48.140;11.488;2022-10-16T08:05:31;5.40;;;2.10;;
4430;SDS011;2228;48.140;11.488;2022-10-16T08:07:58;3.10;;;2.08;;
4430;SDS011;2228;48.140;11.488;2022-10-16T08:10:26;4.43;;;1.98;;
4430;SDS011;2228;48.140;11.488;2022-10-16T08:12:54;2.63;;;1.98;;
4430;SDS011;2228;48.140;11.488;2022-10-16T08:15:21;3.70;;;1.83;;
4430;SDS011;2228;48.140;11.488;2022-10-16T08:17:55;3.45;;;2.20;;
4430;SDS011;2228;48.140;11.488;2022-10-16T08:20:23;4.30;;;1.80;;
4430;SDS011;2228;48.140;11.488;2022-10-16T08:22:50;3.40;;;1.97;;
4430;SDS011;2228;48.140;11.488;2022-10-16T08:25:17;3.90;;;2.13;;
4430;SDS011;2228;48.140;11.488;2022-10-16T08:27:44;3.70;;;1.90;;
4430;SDS011;2228;48.140;11.488;2022-10-16T08:30:11;2.40;;;1.90;;
4430;SDS011;2228;48.140;11.488;2022-10-16T08:32:38;2.28;;;1.88;;
4430;SDS011;2228;48.140;11.488;2022-10-16T08:35:08;5.05;;;2.00;;
4430;SDS011;2228;48.140;11.488;2022-10-16T08:37:35;2.03;;;1.65;;
4430;SDS011;2228;48.140;11.488;2022-10-16T08:40:03;3.90;;;1.60;;
4430;SDS011;2228;48.140;11.488;2022-10-16T08:42:35;2.20;;;1.80;;
4430;SDS011;2228;48.140;11.488;2022-10-16T08:45:20;3.10;;;1.70;;
4430;SDS011;2228;48.140;11.488;2022-10-16T08:47:55;3.45;;;1.70;;
4430;SDS011;2228;48.140;11.488;2022-10-16T08:50:35;4.50;;;2.00;;
4430;SDS011;2228;48.140;11.488;2022-10-16T08:53:04;3.58;;;2.15;;
4430;SDS011;2228;48.140;11.488;2022-10-16T08:55:33;2.90;;;1.80;;
4430;SDS011;2228;48.140;11.488;2022-10-16T08:58:09;3.60;;;1.70;;
4430;SDS011;2228;48.140;11.488;2022-10-16T09:00:38;3.50;;;1.67;;
4430;SDS011;2228;48.140;11.488;2022-10-16T09:03:07;2.10;;;1.60;;
4430;SDS011;2228;48.140;11.488;2022-10-16T09:05:51;2.72;;;1.70;;
4430;SDS011;2228;48.140;11.488;2022-10-16T09:08:26;3.20;;;1.90;;
4430;SDS011;2228;48.140;11.488;2022-10-16T09:11:01;3.60;;;1.50;;
4430;SDS011;2228;48.140;11.488;2022-10-16T09:13:35;3.90;;;1.60;;
4430;SDS011;2228;48.140;11.488;2022-10-16T09:16:12;1.50;;;1.40;;
4430;SDS011;2228;48.140;11.488;2022-10-16T09:18:48;6.20;;;1.40;;
4430;SDS011;2228;48.140;11.488;2022-10-16T09:21:23;3.70;;;1.60;;
4430;SDS011;2228;48.140;11.488;2022-10-16T09:23:53;1.75;;;1.38;;
4430;SDS011;2228;48.140;11.488;2022-10-16T09:26:24;3.35;;;1.60;;
4430;SDS011;2228;48.140;11.488;2022-10-16T09:28:51;3.50;;;1.50;;
4430;SDS011;2228;48.140;11.488;2022-10-16T09:31:19;1.40;;;1.30;;
4430;SDS011;2228;48.140;11.488;2022-10-16T09:33:48;4.97;;;1.60;;
4430;SDS011;2228;48.140;11.488;2022-10-16T09:36:19;1.50;;;1.40;;
4430;SDS011;2228;48.140;11.488;2022-10-16T09:38:48;2.95;;;1.40;;
4430;SDS011;2228;48.140;11.488;2022-10-16T09:41:17;1.80;;;1.50;;
4430;SDS011;2228;48.140;11.488;2022-10-16T09:43:48;1.80;;;1.50;;
4430;SDS011;2228;48.140;11.488;2022-10-16T09:46:21;2.92;;;1.55;;
4430;SDS011;2228;48.140;11.488;2022-10-16T09:48:51;2.20;;;1.50;;
4430;SDS011;2228;48.140;11.488;2022-10-16T09:51:22;2.80;;;1.30;;
4430;SDS011;2228;48.140;11.488;2022-10-16T09:53:55;1.95;;;1.75;;
4430;SDS011;2228;48.140;11.488;2022-10-16T09:56:24;1.50;;;1.40;;
4430;SDS011;2228;48.140;11.488;2022-10-16T09:58:52;1.70;;;1.30;;
4430;SDS011;2228;48.140;11.488;2022-10-16T10:01:22;1.70;;;1.40;;
4430;SDS011;2228;48.140;11.488;2022-10-16T10:03:55;2.40;;;1.00;;
4430;SDS011;2228;48.140;11.488;2022-10-16T10:06:27;1.40;;;1.30;;
4430;SDS011;2228;48.140;11.488;2022-10-16T10:08:59;1.33;;;1.23;;
4430;SDS011;2228;48.140;11.488;2022-10-16T10:11:36;2.30;;;1.30;;
4430;SDS011;2228;48.140;11.488;2022-10-16T10:14:09;1.70;;;1.10;;
4430;SDS011;2228;48.140;11.488;2022-10-16T10:16:48;1.20;;;1.10;;
4430;SDS011;2228;48.140;11.488;2022-10-16T10:19:16;2.70;;;1.20;;
4430;SDS011;2228;48.140;11.488;2022-10-16T10:21:45;1.77;;;1.20;;
4430;SDS011;2228;48.140;11.488;2022-10-16T10:24:15;1.20;;;1.10;;
4430;SDS011;2228;48.140;11.488;2022-10-16T10:26:45;2.80;;;1.10;;
4430;SDS011;2228;48.140;11.488;2022-10-16T10:29:24;1.17;;;1.08;;
4430;SDS011;2228;48.140;11.488;2022-10-16T10:32:00;2.20;;;1.10;;
4430;SDS011;2228;48.140;11.488;2022-10-16T10:34:40;3.30;;;1.20;;
4430;SDS011;2228;48.140;11.488;2022-10-16T10:37:31;2.90;;;1.30;;
4430;SDS011;2228;48.140;11.488;2022-10-16T10:40:11;2.10;;;1.10;;
4430;SDS011;2228;48.140;11.488;2022-10-16T10:42:48;1.20;;;1.10;;
4430;SDS011;2228;48.140;11.488;2022-10-16T10:45:24;1.80;;;0.90;;
4430;SDS011;2228;48.140;11.488;2022-10-16T10:47:57;1.30;;;1.20;;
4430;SDS011;2228;48.140;11.488;2022-10-16T10:50:34;1.20;;;1.00;;
4430;SDS011;2228;48.140;11.488;2022-10-16T10:53:07;1.75;;;1.20;;
4430;SDS011;2228;48.140;11.488;2022-10-16T10:55:46;3.20;;;1.80;;
4430;SDS011;2228;48.140;11.488;2022-10-16T10:58:26;1.20;;;0.95;;
4430;SDS011;2228;48.140;11.488;2022-10-16T11:01:12;3.23;;;1.10;;
4430;SDS011;2228;48.140;11.488;2022-10-16T11:03:52;2.00;;;1.10;;
4430;SDS011;2228;48.140;11.488;2022-10-16T11:06:32;1.45;;;0.90;;
4430;SDS011;2228;48.140;11.488;2022-10-16T11:09:03;1.58;;;0.90;;
4430;SDS011;2228;48.140;11.488;2022-10-16T11:11:40;1.10;;;1.00;;
4430;SDS011;2228;48.140;11.488;2022-10-16T11:14:13;2.25;;;1.00;;
4430;SDS011;2228;48.140;11.488;2022-10-16T11:16:43;1.50;;;0.90;;
4430;SDS011;2228;48.140;11.488;2022-10-16T11:19:18;1.40;;;1.00;;
4430;SDS011;2228;48.140;11.488;2022-10-16T11:21:51;1.30;;;1.00;;
4430;SDS011;2228;48.140;11.488;2022-10-16T11:24:30;2.80;;;0.90;;
4430;SDS011;2228;48.140;11.488;2022-10-16T11:27:09;1.70;;;0.80;;
4430;SDS011;2228;48.140;11.488;2022-10-16T11:29:43;1.50;;;0.80;;
4430;SDS011;2228;48.140;11.488;2022-10-16T11:32:18;1.60;;;0.80;;
4430;SDS011;2228;48.140;11.488;2022-10-16T11:34:49;1.40;;;0.80;;
4430;SDS011;2228;48.140;11.488;2022-10-16T11:37:20;2.55;;;0.90;;
4430;SDS011;2228;48.140;11.488;2022-10-16T11:39:52;1.20;;;1.10;;
4430;SDS011;2228;48.140;11.488;2022-10-16T11:42:27;1.20;;;0.98;;
4430;SDS011;2228;48.140;11.488;2022-10-16T11:45:00;1.70;;;0.80;;
4430;SDS011;2228;48.140;11.488;2022-10-16T11:47:35;1.52;;;0.70;;
4430;SDS011;2228;48.140;11.488;2022-10-16T11:50:10;3.45;;;0.90;;
4430;SDS011;2228;48.140;11.488;2022-10-16T11:52:53;2.60;;;1.00;;
4430;SDS011;2228;48.140;11.488;2022-10-16T11:55:24;2.40;;;0.80;;
4430;SDS011;2228;48.140;11.488;2022-10-16T11:57:59;2.27;;;0.80;;
4430;SDS011;2228;48.140;11.488;2022-10-16T12:00:30;0.95;;;0.90;;
4430;SDS011;2228;48.140;11.488;2022-10-16T12:03:08;2.45;;;0.85;;
4430;SDS011;2228;48.140;11.488;2022-10-16T12:05:50;0.80;;;0.80;;
4430;SDS011;2228;48.140;11.488;2022-10-16T12:08:24;1.15;;;0.70;;
4430;SDS011;2228;48.140;11.488;2022-10-16T12:10:52;1.70;;;0.90;;
4430;SDS011;2228;48.140;11.488;2022-10-16T12:13:34;3.63;;;0.90;;
4430;SDS011;2228;48.140;11.488;2022-10-16T12:16:06;1.00;;;0.90;;
4430;SDS011;2228;48.140;11.488;2022-10-16T12:18:46;0.80;;;0.80;;
4430;SDS011;2228;48.140;11.488;2022-10-16T12:21:15;1.00;;;0.90;;
4430;SDS011;2228;48.140;11.488;2022-10-16T12:23:47;0.95;;;0.80;;
4430;SDS011;2228;48.140;11.488;2022-10-16T12:26:23;1.77;;;0.93;;
4430;SDS011;2228;48.140;11.488;2022-10-16T12:28:53;1.30;;;0.90;;
4430;SDS011;2228;48.140;11.488;2022-10-16T12:31:20;1.50;;;0.70;;
4430;SDS011;2228;48.140;11.488;2022-10-16T12:33:54;1.20;;;0.70;;
4430;SDS011;2228;48.140;11.488;2022-10-16T12:36:27;1.25;;;0.85;;
4430;SDS011;2228;48.140;11.488;2022-10-16T12:38:56;1.80;;;0.80;;
4430;SDS011;2228;48.140;11.488;2022-10-16T12:41:26;1.20;;;0.80;;
4430;SDS011;2228;48.140;11.488;2022-10-16T12:43:56;0.80;;;0.70;;
4430;SDS011;2228;48.140;11.488;2022-10-16T12:46:37;0.70;;;0.70;;
4430;SDS011;2228;48.140;11.488;2022-10-16T12:49:06;1.63;;;0.70;;
4430;SDS011;2228;48.140;11.488;2022-10-16T12:51:47;2.10;;;1.38;;
4430;SDS011;2228;48.140;11.488;2022-10-16T12:54:14;1.27;;;0.95;;
4430;SDS011;2228;48.140;11.488;2022-10-16T12:56:46;1.20;;;0.80;;
4430;SDS011;2228;48.140;11.488;2022-10-16T12:59:28;0.88;;;0.70;;
4430;SDS011;2228;48.140;11.488;2022-10-16T13:02:06;1.00;;;0.60;;
4430;SDS011;2228;48.140;11.488;2022-10-16T13:05:08;0.80;;;0.68;;
4430;SDS011;2228;48.140;11.488;2022-10-16T13:07:50;1.40;;;0.68;;
4430;SDS011;2228;48.140;11.488;2022-10-16T13:10:24;2.10;;;0.80;;
4430;SDS011;2228;48.140;11.488;2022-10-16T13:13:02;1.15;;;0.60;;
4430;SDS011;2228;48.140;11.488;2022-10-16T13:15:50;1.05;;;0.60;;
4430;SDS011;2228;48.140;11.488;2022-10-16T13:18:25;0.80;;;0.50;;
4430;SDS011;2228;48.140;11.488;2022-10-16T13:21:08;1.60;;;0.60;;
4430;SDS011;2228;48.140;11.488;2022-10-16T13:23:46;0.88;;;0.60;;
4430;SDS011;2228;48.140;11.488;2022-10-16T13:26:22;0.60;;;0.60;;
4430;SDS011;2228;48.140;11.488;2022-10-16T13:28:57;0.60;;;0.50;;
4430;SDS011;2228;48.140;11.488;2022-10-16T13:31:28;0.60;;;0.60;;
4430;SDS011;2228;48.140;11.488;2022-10-16T13:33:56;1.10;;;0.50;;
4430;SDS011;2228;48.140;11.488;2022-10-16T13:36:27;2.22;;;0.60;;
4430;SDS011;2228;48.140;11.488;2022-10-16T13:39:06;0.90;;;0.60;;
4430;SDS011;2228;48.140;11.488;2022-10-16T13:41:38;3.90;;;0.70;;
4430;SDS011;2228;48.140;11.488;2022-10-16T13:44:08;0.65;;;0.60;;
4430;SDS011;2228;48.140;11.488;2022-10-16T13:46:41;1.42;;;0.60;;
4430;SDS011;2228;48.140;11.488;2022-10-16T13:49:11;1.80;;;0.90;;
4430;SDS011;2228;48.140;11.488;2022-10-16T13:51:40;0.93;;;0.60;;
4430;SDS011;2228;48.140;11.488;2022-10-16T13:54:07;2.20;;;0.60;;
4430;SDS011;2228;48.140;11.488;2022-10-16T13:56:38;1.30;;;0.80;;
4430;SDS011;2228;48.140;11.488;2022-10-16T13:59:06;0.88;;;0.70;;
4430;SDS011;2228;48.140;11.488;2022-10-16T14:01:50;1.13;;;0.70;;
4430;SDS011;2228;48.140;11.488;2022-10-16T14:04:20;0.68;;;0.60;;
4430;SDS011;2228;48.140;11.488;2022-10-16T14:06:49;1.92;;;0.60;;
4430;SDS011;2228;48.140;11.488;2022-10-16T14:09:20;0.80;;;0.70;;
4430;SDS011;2228;48.140;11.488;2022-10-16T14:11:49;0.60;;;0.50;;
4430;SDS011;2228;48.140;11.488;2022-10-16T14:14:18;0.60;;;0.60;;
4430;SDS011;2228;48.140;11.488;2022-10-16T14:16:45;3.60;;;0.60;;
4430;SDS011;2228;48.140;11.488;2022-10-16T14:19:15;0.60;;;0.50;;
4430;SDS011;2228;48.140;11.488;2022-10-16T14:21:47;1.70;;;0.70;;
4430;SDS011;2228;48.140;11.488;2022-10-16T14:24:21;1.20;;;0.70;;
4430;SDS011;2228;48.140;11.488;2022-10-16T14:26:52;1.00;;;0.70;;
4430;SDS011;2228;48.140;11.488;2022-10-16T14:29:21;1.40;;;0.70;;
4430;SDS011;2228;48.140;11.488;2022-10-16T14:31:56;0.88;;;0.70;;
4430;SDS011;2228;48.140;11.488;2022-10-16T14:34:26;1.80;;;0.80;;
4430;SDS011;2228;48.140;11.488;2022-10-16T14:36:55;1.25;;;0.80;;
4430;SDS011;2228;48.140;11.488;2022-10-16T14:39:24;2.95;;;0.70;;
4430;SDS011;2228;48.140;11.488;2022-10-16T14:41:52;1.80;;;0.80;;
4430;SDS011;2228;48.140;11.488;2022-10-16T14:44:25;0.70;;;0.60;;
4430;SDS011;2228;48.140;11.488;2022-10-16T14:46:54;2.03;;;0.70;;
4430;SDS011;2228;48.140;11.488;2022-10-16T14:49:21;2.55;;;1.00;;
4430;SDS011;2228;48.140;11.488;2022-10-16T14:51:50;1.15;;;1.00;;
4430;SDS011;2228;48.140;11.488;2022-10-16T14:54:18;0.80;;;0.80;;
4430;SDS011;2228;48.140;11.488;2022-10-16T14:56:46;0.90;;;0.80;;
4430;SDS011;2228;48.140;11.488;2022-10-16T14:59:17;1.50;;;0.90;;
4430;SDS011;2228;48.140;11.488;2022-10-16T15:01:54;2.90;;;0.88;;
4430;SDS011;2228;48.140;11.488;2022-10-16T15:04:21;1.40;;;0.70;;
4430;SDS011;2228;48.140;11.488;2022-10-16T15:06:48;1.30;;;1.10;;
4430;SDS011;2228;48.140;11.488;2022-10-16T15:09:17;2.10;;;1.00;;
4430;SDS011;2228;48.140;11.488;2022-10-16T15:11:43;2.28;;;1.02;;
4430;SDS011;2228;48.140;11.488;2022-10-16T15:14:12;1.40;;;0.80;;
4430;SDS011;2228;48.140;11.488;2022-10-16T15:16:39;0.80;;;0.70;;
4430;SDS011;2228;48.140;11.488;2022-10-16T15:19:06;2.00;;;0.90;;